createdAt,value
2017-05-10T00:00:51.623Z,1.94
2017-05-10T00:03:17.594Z,2.02
2017-05-10T00:05:44.286Z,1.92
2017-05-10T00:08:10.128Z,2.50
2017-05-10T00:10:35.990Z,2.76
2017-05-10T00:13:01.880Z,2.36
2017-05-10T00:15:28.564Z,3.24
2017-05-10T00:17:54.418Z,2.12
2017-05-10T00:20:20.268Z,2.22
2017-05-10T00:22:46.882Z,2.46
2017-05-10T00:25:12.730Z,2.64
2017-05-10T00:27:38.687Z,3.72
2017-05-10T00:30:04.560Z,3.74
2017-05-10T00:32:30.397Z,2.46
2017-05-10T00:34:56.254Z,5.46
2017-05-10T00:37:22.188Z,2.08
2017-05-10T00:39:48.030Z,2.68
2017-05-10T00:42:13.946Z,2.52
2017-05-10T00:44:39.797Z,1.80
2017-05-10T00:47:05.744Z,2.48
2017-05-10T00:49:31.630Z,2.04
2017-05-10T00:51:57.620Z,2.84
2017-05-10T00:54:23.451Z,2.34
2017-05-10T00:56:49.294Z,2.70
2017-05-10T00:59:15.237Z,1.80
2017-05-10T01:01:41.097Z,1.74
2017-05-10T01:04:06.960Z,2.54
2017-05-10T01:06:32.806Z,3.26
2017-05-10T01:08:58.677Z,1.86
2017-05-10T01:11:24.659Z,2.78
2017-05-10T01:13:50.512Z,2.66
2017-05-10T01:16:16.341Z,1.60
2017-05-10T01:18:42.197Z,1.80
2017-05-10T01:21:08.078Z,2.52
2017-05-10T01:23:34.055Z,3.66
2017-05-10T01:25:59.905Z,2.64
2017-05-10T01:28:25.763Z,1.96
2017-05-10T01:30:51.632Z,1.68
2017-05-10T01:33:17.449Z,2.64
2017-05-10T01:35:43.390Z,2.28
2017-05-10T01:38:09.247Z,1.98
2017-05-10T01:40:35.139Z,1.82
2017-05-10T01:43:01.026Z,2.82
2017-05-10T01:45:26.872Z,2.10
2017-05-10T01:47:52.803Z,2.72
2017-05-10T01:50:18.750Z,1.82
2017-05-10T01:52:44.621Z,1.50
2017-05-10T01:55:10.476Z,2.72
2017-05-10T01:57:36.324Z,1.80
2017-05-10T02:00:02.218Z,1.60
2017-05-10T02:02:28.167Z,2.70
2017-05-10T02:04:54.752Z,2.12
2017-05-10T02:07:20.590Z,1.98
2017-05-10T02:09:46.426Z,4.72
2017-05-10T02:12:13.025Z,1.82
2017-05-10T02:14:39.167Z,1.88
2017-05-10T02:17:05.035Z,1.60
2017-05-10T02:19:31.615Z,2.30
2017-05-10T02:21:57.543Z,2.32
2017-05-10T02:24:23.377Z,2.04
2017-05-10T02:26:49.311Z,2.18
2017-05-10T02:29:15.955Z,1.94
2017-05-10T02:31:41.800Z,3.72
2017-05-10T02:34:07.751Z,2.72
2017-05-10T02:36:33.630Z,2.00
2017-05-10T02:39:00.238Z,1.52
2017-05-10T02:41:26.130Z,1.90
2017-05-10T02:43:51.987Z,1.62
2017-05-10T02:46:17.950Z,2.44
2017-05-10T02:48:43.925Z,2.50
2017-05-10T02:51:09.791Z,1.54
2017-05-10T02:53:35.613Z,1.70
2017-05-10T02:56:01.488Z,2.22
2017-05-10T02:58:27.300Z,2.08
2017-05-10T03:00:53.303Z,1.58
2017-05-10T03:03:19.186Z,3.30
2017-05-10T03:05:45.246Z,1.82
2017-05-10T03:08:11.078Z,1.46
2017-05-10T03:10:36.919Z,2.74
2017-05-10T03:13:02.766Z,2.24
2017-05-10T03:15:28.631Z,2.44
2017-05-10T03:17:54.588Z,1.68
2017-05-10T03:20:20.428Z,1.76
2017-05-10T03:22:46.319Z,1.70
2017-05-10T03:25:12.177Z,2.14
2017-05-10T03:27:38.021Z,2.22
2017-05-10T03:30:03.965Z,3.78
2017-05-10T03:32:29.806Z,2.06
2017-05-10T03:34:55.654Z,2.16
2017-05-10T03:37:21.501Z,2.56
2017-05-10T03:39:47.374Z,2.10
2017-05-10T03:42:13.305Z,2.12
2017-05-10T03:44:39.899Z,1.96
2017-05-10T03:47:05.742Z,1.68
2017-05-10T03:49:31.589Z,3.10
2017-05-10T03:51:58.217Z,5.26
2017-05-10T03:54:24.932Z,2.70
2017-05-10T03:56:50.742Z,2.74
2017-05-10T03:59:16.671Z,2.08
2017-05-10T04:01:42.521Z,2.28
2017-05-10T04:04:08.498Z,4.14
2017-05-10T04:06:34.486Z,2.20
2017-05-10T04:09:00.361Z,2.52
2017-05-10T04:11:26.205Z,2.22
2017-05-10T04:13:52.046Z,2.92
2017-05-10T04:16:18.665Z,2.14
2017-05-10T04:18:44.611Z,2.38
2017-05-10T04:21:10.466Z,3.30
2017-05-10T04:23:36.353Z,2.46
2017-05-10T04:26:02.194Z,2.84
2017-05-10T04:28:28.042Z,2.34
2017-05-10T04:30:53.999Z,3.24
2017-05-10T04:33:19.884Z,3.46
2017-05-10T04:35:45.740Z,2.68
2017-05-10T04:38:11.593Z,2.08
2017-05-10T04:40:37.481Z,2.66
2017-05-10T04:43:04.172Z,3.78
2017-05-10T04:45:30.118Z,1.98
2017-05-10T04:47:55.954Z,1.74
2017-05-10T04:50:22.574Z,4.64
2017-05-10T04:52:48.466Z,3.16
2017-05-10T04:55:14.437Z,1.60
2017-05-10T04:57:40.278Z,3.68
2017-05-10T05:00:06.142Z,2.24
2017-05-10T05:02:32.070Z,2.54
2017-05-10T05:04:57.879Z,3.76
2017-05-10T05:07:23.978Z,4.22
2017-05-10T05:09:49.941Z,6.72
2017-05-10T05:12:15.795Z,9.02
2017-05-10T05:14:41.645Z,7.44
2017-05-10T05:17:07.528Z,7.86
2017-05-10T05:19:34.239Z,5.52
2017-05-10T05:22:00.105Z,5.22
2017-05-10T05:24:25.942Z,7.64
2017-05-10T05:26:51.832Z,4.12
2017-05-10T05:29:17.687Z,6.32
2017-05-10T05:31:43.687Z,5.54
2017-05-10T05:34:09.593Z,4.28
2017-05-10T05:36:35.437Z,6.28
2017-05-10T05:39:01.291Z,7.80
2017-05-10T05:41:27.147Z,4.62
2017-05-10T05:43:53.301Z,4.60
2017-05-10T05:46:19.166Z,4.22
2017-05-10T05:48:45.041Z,5.96
2017-05-10T05:51:10.967Z,8.26
2017-05-10T05:53:36.820Z,4.54
2017-05-10T05:56:02.755Z,4.84
2017-05-10T05:58:28.635Z,4.96
2017-05-10T06:00:54.483Z,7.86
2017-05-10T06:03:20.330Z,10.90
2017-05-10T06:05:46.193Z,6.04
2017-05-10T06:08:12.107Z,4.64
2017-05-10T06:10:37.950Z,7.60
2017-05-10T06:13:03.799Z,7.80
2017-05-10T06:15:29.687Z,8.60
2017-05-10T06:17:55.582Z,8.04
2017-05-10T06:20:21.573Z,6.42
2017-05-10T06:22:47.419Z,6.36
2017-05-10T06:25:13.306Z,8.60
2017-05-10T06:27:39.166Z,8.62
2017-05-10T06:30:05.152Z,10.14
2017-05-10T06:32:31.002Z,6.40
2017-05-10T06:34:57.654Z,6.14
2017-05-10T06:37:23.507Z,6.54
2017-05-10T06:39:49.362Z,9.82
2017-05-10T06:42:15.370Z,7.38
2017-05-10T06:44:41.213Z,8.34
2017-05-10T06:47:07.138Z,6.04
2017-05-10T06:49:32.995Z,4.96
2017-05-10T06:51:58.848Z,6.24
2017-05-10T06:54:24.790Z,5.88
2017-05-10T06:56:50.734Z,3.42
2017-05-10T06:59:16.571Z,9.40
2017-05-10T07:01:42.449Z,7.56
2017-05-10T07:04:08.324Z,7.42
2017-05-10T07:06:34.510Z,5.62
2017-05-10T07:09:01.105Z,4.42
2017-05-10T07:11:26.950Z,7.04
2017-05-10T07:13:52.848Z,6.34
2017-05-10T07:16:18.770Z,4.34
2017-05-10T07:18:44.734Z,5.40
2017-05-10T07:21:10.583Z,5.20
2017-05-10T07:23:36.498Z,6.74
2017-05-10T07:26:02.363Z,3.60
2017-05-10T07:28:28.206Z,5.06
2017-05-10T07:30:54.217Z,3.18
2017-05-10T07:33:20.067Z,3.54
2017-05-10T07:35:46.690Z,5.30
2017-05-10T07:38:12.541Z,3.02
2017-05-10T07:40:38.392Z,3.06
2017-05-10T07:43:04.324Z,3.32
2017-05-10T07:45:30.176Z,3.08
2017-05-10T07:47:56.047Z,3.10
2017-05-10T07:50:22.079Z,3.86
2017-05-10T07:52:47.966Z,7.52
2017-05-10T07:55:13.842Z,7.16
2017-05-10T07:57:39.702Z,7.18
2017-05-10T08:00:05.587Z,5.44
2017-05-10T08:02:31.540Z,5.44
2017-05-10T08:04:58.122Z,3.60
2017-05-10T08:07:24.035Z,4.46
2017-05-10T08:09:49.924Z,4.32
2017-05-10T08:12:15.827Z,2.36
2017-05-10T08:14:41.774Z,4.84
2017-05-10T08:17:07.619Z,3.80
2017-05-10T08:19:33.481Z,3.20
2017-05-10T08:21:59.366Z,3.62
2017-05-10T08:24:25.233Z,4.72
2017-05-10T08:26:51.195Z,3.34
2017-05-10T08:29:17.073Z,8.26
2017-05-10T08:31:42.959Z,3.42
2017-05-10T08:34:08.823Z,2.18
2017-05-10T08:36:34.801Z,3.26
2017-05-10T08:39:00.666Z,2.92
2017-05-10T08:41:26.519Z,4.52
2017-05-10T08:43:52.413Z,1.90
2017-05-10T08:46:18.394Z,1.60
2017-05-10T08:48:44.336Z,2.00
2017-05-10T08:51:10.195Z,3.02
2017-05-10T08:53:36.092Z,2.58
2017-05-10T08:56:01.989Z,3.46
2017-05-10T08:58:27.971Z,3.88
2017-05-10T09:00:53.878Z,3.24
2017-05-10T09:03:19.743Z,2.24
2017-05-10T09:05:45.723Z,3.04
2017-05-10T09:08:11.635Z,2.26
2017-05-10T09:10:37.489Z,1.52
2017-05-10T09:13:03.352Z,4.76
2017-05-10T09:15:29.206Z,1.92
2017-05-10T09:17:55.174Z,2.08
2017-05-10T09:20:21.073Z,4.74
2017-05-10T09:22:46.968Z,4.80
2017-05-10T09:25:12.807Z,2.82
2017-05-10T09:27:38.698Z,1.64
2017-05-10T09:30:05.398Z,2.32
2017-05-10T09:32:31.241Z,3.72
2017-05-10T09:34:57.140Z,6.94
2017-05-10T09:37:23.040Z,7.60
2017-05-10T09:39:48.894Z,4.16
2017-05-10T09:42:14.825Z,5.20
2017-05-10T09:44:40.740Z,10.08
2017-05-10T09:47:06.719Z,8.26
2017-05-10T09:49:32.561Z,8.60
2017-05-10T09:51:58.413Z,10.12
2017-05-10T09:54:24.358Z,9.42
2017-05-10T09:56:50.206Z,8.48
2017-05-10T09:59:16.085Z,10.54
2017-05-10T10:01:41.936Z,8.42
2017-05-10T10:04:07.830Z,5.90
2017-05-10T10:06:33.789Z,8.82
2017-05-10T10:08:59.643Z,6.84
2017-05-10T10:11:25.490Z,4.86
2017-05-10T10:13:51.413Z,9.24
2017-05-10T10:16:17.310Z,7.82
2017-05-10T10:18:43.189Z,7.08
2017-05-10T10:21:09.041Z,9.94
2017-05-10T10:23:35.010Z,11.10
2017-05-10T10:26:00.936Z,8.60
2017-05-10T10:28:26.834Z,8.86
2017-05-10T10:30:52.677Z,9.92
2017-05-10T10:33:18.534Z,7.60
2017-05-10T10:35:44.397Z,7.36
2017-05-10T10:38:10.375Z,12.24
2017-05-10T10:40:36.270Z,6.86
2017-05-10T10:43:02.158Z,8.46
2017-05-10T10:45:28.139Z,9.24
2017-05-10T10:47:53.995Z,5.98
2017-05-10T10:50:19.952Z,9.92
2017-05-10T10:52:45.841Z,6.72
2017-05-10T10:55:11.695Z,6.16
2017-05-10T10:57:37.575Z,8.42
2017-05-10T11:00:03.445Z,5.68
2017-05-10T11:02:29.424Z,5.62
2017-05-10T11:04:55.318Z,6.12
2017-05-10T11:07:21.242Z,5.94
2017-05-10T11:09:47.154Z,4.72
2017-05-10T11:12:13.045Z,4.98
2017-05-10T11:14:39.729Z,6.20
2017-05-10T11:17:05.565Z,11.46
2017-05-10T11:19:31.426Z,4.88
2017-05-10T11:21:57.306Z,4.12
2017-05-10T11:24:23.155Z,7.02
2017-05-10T11:26:49.163Z,6.88
2017-05-10T11:29:15.050Z,6.04
2017-05-10T11:31:41.020Z,5.64
2017-05-10T11:34:06.891Z,6.68
2017-05-10T11:36:34.291Z,5.36
2017-05-10T11:39:00.155Z,5.34
2017-05-10T11:41:26.041Z,6.06
2017-05-10T11:43:51.991Z,5.72
2017-05-10T11:46:17.850Z,8.34
2017-05-10T11:48:43.696Z,4.00
2017-05-10T11:51:10.326Z,4.42
2017-05-10T11:53:37.005Z,3.68
2017-05-10T11:56:02.858Z,5.38
2017-05-10T11:58:28.711Z,7.00
2017-05-10T12:00:54.571Z,4.96
2017-05-10T12:03:20.478Z,3.90
2017-05-10T12:05:46.442Z,4.22
2017-05-10T12:08:12.342Z,6.84
2017-05-10T12:10:38.199Z,8.30
2017-05-10T12:13:04.115Z,4.86
2017-05-10T12:15:30.062Z,5.04
2017-05-10T12:17:56.662Z,7.12
2017-05-10T12:20:22.541Z,12.94
2017-05-10T12:22:48.442Z,8.44
2017-05-10T12:25:14.428Z,15.06
2017-05-10T12:27:40.276Z,8.48
2017-05-10T12:30:06.134Z,7.60
2017-05-10T12:32:32.189Z,8.14
2017-05-10T12:34:58.063Z,11.56
2017-05-10T12:37:24.013Z,10.68
2017-05-10T12:39:49.791Z,9.08
2017-05-10T12:42:15.643Z,11.04
2017-05-10T12:44:41.651Z,9.52
2017-05-10T12:47:07.526Z,7.60
2017-05-10T12:49:33.435Z,8.90
2017-05-10T12:51:59.264Z,8.08
2017-05-10T12:54:25.142Z,9.10
2017-05-10T12:56:51.114Z,7.58
2017-05-10T12:59:16.991Z,7.64
2017-05-10T13:01:42.830Z,8.24
2017-05-10T13:04:08.672Z,10.36
2017-05-10T13:06:34.577Z,6.68
2017-05-10T13:09:00.578Z,15.52
2017-05-10T13:11:26.486Z,9.42
2017-05-10T13:13:53.084Z,9.30
2017-05-10T13:16:18.946Z,8.02
2017-05-10T13:18:44.826Z,6.56
2017-05-10T13:21:10.786Z,9.38
2017-05-10T13:23:36.632Z,8.12
2017-05-10T13:26:02.522Z,11.44
2017-05-10T13:28:28.391Z,7.08
2017-05-10T13:30:54.263Z,5.72
2017-05-10T13:33:20.270Z,8.50
2017-05-10T13:35:46.178Z,10.24
2017-05-10T13:38:12.063Z,6.86
2017-05-10T13:40:37.914Z,4.86
2017-05-10T13:43:03.759Z,11.58
2017-05-10T13:45:30.499Z,6.92
2017-05-10T13:47:57.086Z,7.22
2017-05-10T13:50:22.927Z,8.70
2017-05-10T13:52:48.814Z,7.42
2017-05-10T13:55:14.694Z,7.88
2017-05-10T13:57:40.666Z,10.16
2017-05-10T14:00:06.558Z,6.06
2017-05-10T14:02:32.403Z,8.10
2017-05-10T14:04:58.283Z,5.54
2017-05-10T14:07:24.145Z,6.46
2017-05-10T14:09:50.063Z,6.40
2017-05-10T14:12:15.918Z,6.72
2017-05-10T14:14:41.870Z,7.80
2017-05-10T14:17:07.768Z,6.74
2017-05-10T14:19:33.640Z,7.22
2017-05-10T14:21:59.506Z,6.82
2017-05-10T14:24:25.371Z,7.10
2017-05-10T14:26:51.236Z,8.24
2017-05-10T14:29:17.237Z,6.24
2017-05-10T14:31:43.789Z,6.02
2017-05-10T14:34:10.071Z,6.84
2017-05-10T14:36:35.938Z,8.04
2017-05-10T14:39:01.891Z,5.40
2017-05-10T14:41:27.789Z,6.40
2017-05-10T14:43:53.691Z,6.68
2017-05-10T14:46:19.550Z,4.90
2017-05-10T14:48:45.429Z,6.78
2017-05-10T14:51:11.443Z,6.60
2017-05-10T14:53:37.365Z,4.58
2017-05-10T14:56:03.239Z,6.44
2017-05-10T14:58:29.851Z,4.94
2017-05-10T15:00:55.848Z,4.46
2017-05-10T15:03:22.040Z,5.36
2017-05-10T15:05:47.895Z,3.62
2017-05-10T15:08:13.783Z,4.40
2017-05-10T15:10:39.642Z,3.76
2017-05-10T15:13:05.519Z,3.74
2017-05-10T15:15:31.735Z,5.38
2017-05-10T15:17:57.602Z,5.20
2017-05-10T15:20:23.508Z,6.96
2017-05-10T15:22:49.463Z,3.66
2017-05-10T15:25:15.362Z,4.12
2017-05-10T15:27:41.267Z,5.20
2017-05-10T15:30:07.938Z,5.02
2017-05-10T15:32:33.862Z,4.10
2017-05-10T15:34:59.773Z,4.18
2017-05-10T15:37:25.643Z,6.68
2017-05-10T15:39:51.595Z,4.46
2017-05-10T15:42:18.195Z,3.30
2017-05-10T15:44:44.064Z,3.60
2017-05-10T15:47:10.128Z,3.96
2017-05-10T15:49:35.967Z,4.34
2017-05-10T15:52:01.889Z,4.64
2017-05-10T15:54:27.790Z,3.92
2017-05-10T15:56:53.663Z,4.70
2017-05-10T15:59:20.333Z,3.62
2017-05-10T16:01:46.195Z,5.02
2017-05-10T16:04:12.071Z,5.16
2017-05-10T16:06:37.973Z,5.16
2017-05-10T16:09:03.887Z,4.90
2017-05-10T16:11:29.870Z,4.02
2017-05-10T16:13:55.733Z,3.58
2017-05-10T16:16:21.631Z,6.66
2017-05-10T16:18:48.010Z,5.14
2017-05-10T16:21:13.886Z,5.54
2017-05-10T16:23:40.657Z,5.30
2017-05-10T16:26:06.598Z,4.64
2017-05-10T16:28:32.485Z,5.24
2017-05-10T16:30:58.394Z,3.76
2017-05-10T16:33:24.258Z,3.54
2017-05-10T16:35:50.232Z,5.46
2017-05-10T16:38:16.109Z,4.28
2017-05-10T16:40:42.010Z,4.90
2017-05-10T16:43:08.434Z,3.96
2017-05-10T16:45:34.282Z,5.32
2017-05-10T16:48:00.147Z,6.00
2017-05-10T16:50:26.051Z,5.50
2017-05-10T16:52:51.943Z,4.56
2017-05-10T16:55:17.943Z,5.00
2017-05-10T16:57:43.790Z,5.08
2017-05-10T17:00:09.644Z,4.30
2017-05-10T17:02:35.503Z,3.70
2017-05-10T17:05:02.099Z,4.78
2017-05-10T17:07:28.078Z,4.82
2017-05-10T17:09:54.001Z,4.96
2017-05-10T17:12:19.865Z,9.70
2017-05-10T17:14:45.734Z,8.46
2017-05-10T17:17:11.594Z,4.26
2017-05-10T17:19:37.585Z,4.30
2017-05-10T17:22:03.429Z,3.48
2017-05-10T17:24:29.274Z,4.44
2017-05-10T17:26:55.133Z,4.54
2017-05-10T17:29:21.034Z,5.14
2017-05-10T17:31:47.778Z,4.92
2017-05-10T17:34:13.616Z,6.96
2017-05-10T17:36:39.472Z,4.76
2017-05-10T17:39:05.339Z,4.76
2017-05-10T17:41:31.195Z,4.44
2017-05-10T17:43:57.139Z,3.42
2017-05-10T17:46:23.029Z,3.88
2017-05-10T17:48:48.892Z,5.94
2017-05-10T17:51:14.748Z,4.94
2017-05-10T17:53:40.746Z,4.38
2017-05-10T17:56:06.605Z,4.52
2017-05-10T17:58:32.471Z,6.04
2017-05-10T18:00:58.314Z,3.72
2017-05-10T18:03:24.221Z,3.88
2017-05-10T18:05:50.119Z,3.66
2017-05-10T18:08:16.091Z,5.46
2017-05-10T18:10:42.743Z,2.80
2017-05-10T18:13:09.328Z,5.62
2017-05-10T18:15:35.222Z,4.10
2017-05-10T18:18:01.138Z,3.56
2017-05-10T18:20:27.123Z,4.32
2017-05-10T18:22:53.761Z,4.66
2017-05-10T18:25:19.620Z,4.26
2017-05-10T18:27:45.494Z,4.76
2017-05-10T18:30:11.337Z,3.22
2017-05-10T18:32:37.322Z,4.70
2017-05-10T18:35:03.227Z,8.16
2017-05-10T18:37:29.117Z,5.42
2017-05-10T18:39:54.982Z,5.62
2017-05-10T18:42:20.829Z,8.40
2017-05-10T18:44:46.821Z,6.06
2017-05-10T18:47:12.693Z,6.38
2017-05-10T18:49:38.548Z,8.76
2017-05-10T18:52:04.395Z,4.06
2017-05-10T18:54:30.267Z,3.58
2017-05-10T18:56:56.249Z,7.38
2017-05-10T18:59:22.205Z,3.94
2017-05-10T19:01:48.076Z,5.90
2017-05-10T19:04:13.941Z,5.04
2017-05-10T19:06:40.542Z,4.36
2017-05-10T19:09:07.470Z,3.12
2017-05-10T19:11:33.398Z,7.18
2017-05-10T19:13:59.279Z,5.64
2017-05-10T19:16:25.139Z,4.28
2017-05-10T19:18:50.996Z,8.14
2017-05-10T19:21:16.898Z,5.56
2017-05-10T19:23:42.746Z,3.52
2017-05-10T19:26:08.592Z,4.46
2017-05-10T19:28:34.455Z,4.22
2017-05-10T19:31:00.425Z,7.74
2017-05-10T19:33:26.316Z,4.20
2017-05-10T19:35:52.939Z,2.66
2017-05-10T19:38:18.918Z,3.20
2017-05-10T19:40:44.774Z,3.38
2017-05-10T19:43:10.647Z,2.58
2017-05-10T19:45:36.495Z,4.44
2017-05-10T19:48:02.371Z,2.98
2017-05-10T19:50:28.359Z,2.96
2017-05-10T19:52:54.246Z,6.60
2017-05-10T19:55:20.093Z,3.24
2017-05-10T19:57:45.977Z,3.00
2017-05-10T20:00:11.822Z,2.80
2017-05-10T20:02:37.767Z,7.66
2017-05-10T20:05:03.633Z,2.40
2017-05-10T20:07:29.483Z,3.98
2017-05-10T20:09:55.370Z,6.22
2017-05-10T20:12:21.223Z,2.34
2017-05-10T20:14:47.167Z,3.34
2017-05-10T20:17:13.023Z,3.96
2017-05-10T20:19:38.901Z,4.72
2017-05-10T20:22:04.764Z,3.28
2017-05-10T20:24:31.445Z,4.66
2017-05-10T20:26:57.310Z,5.40
2017-05-10T20:29:23.258Z,3.32
2017-05-10T20:31:49.110Z,3.38
2017-05-10T20:34:14.973Z,5.46
2017-05-10T20:36:41.066Z,5.18
2017-05-10T20:39:06.932Z,3.68
2017-05-10T20:41:32.772Z,6.96
2017-05-10T20:43:58.618Z,4.68
2017-05-10T20:46:24.506Z,5.28
2017-05-10T20:48:50.498Z,5.28
2017-05-10T20:51:17.087Z,6.92
2017-05-10T20:53:42.939Z,3.40
2017-05-10T20:56:08.802Z,3.42
2017-05-10T20:58:34.646Z,3.62
2017-05-10T21:01:00.651Z,4.56
2017-05-10T21:03:26.563Z,3.66
2017-05-10T21:05:52.439Z,4.02
2017-05-10T21:08:18.294Z,3.66
2017-05-10T21:10:44.928Z,3.84
2017-05-10T21:13:11.706Z,5.40
2017-05-10T21:15:37.582Z,3.70
2017-05-10T21:18:03.463Z,3.68
2017-05-10T21:20:29.308Z,5.80
2017-05-10T21:22:55.197Z,4.76
2017-05-10T21:25:21.058Z,3.36
2017-05-10T21:27:46.887Z,3.50
2017-05-10T21:30:12.843Z,3.58
2017-05-10T21:32:38.693Z,3.64
2017-05-10T21:35:04.592Z,3.86
2017-05-10T21:37:30.495Z,5.74
2017-05-10T21:39:56.326Z,3.94
2017-05-10T21:42:22.286Z,3.98
2017-05-10T21:44:48.169Z,3.62
2017-05-10T21:47:14.015Z,3.86
2017-05-10T21:49:39.865Z,4.02
2017-05-10T21:52:05.735Z,3.62
2017-05-10T21:54:31.691Z,4.42
2017-05-10T21:56:57.581Z,4.56
2017-05-10T21:59:23.430Z,5.24
2017-05-10T22:01:49.270Z,4.14
2017-05-10T22:04:15.135Z,3.54
2017-05-10T22:06:41.207Z,4.74
2017-05-10T22:09:07.059Z,4.24
2017-05-10T22:11:33.302Z,4.52
2017-05-10T22:13:59.226Z,4.02
2017-05-10T22:16:25.075Z,3.88
2017-05-10T22:18:50.998Z,3.86
2017-05-10T22:21:16.840Z,5.06
2017-05-10T22:23:42.715Z,3.78
2017-05-10T22:26:08.602Z,3.68
2017-05-10T22:28:35.194Z,3.64
2017-05-10T22:31:01.190Z,3.34
2017-05-10T22:33:26.991Z,3.90
2017-05-10T22:35:52.844Z,4.06
2017-05-10T22:38:18.723Z,3.58
2017-05-10T22:40:45.354Z,4.80
2017-05-10T22:43:11.309Z,3.40
2017-05-10T22:45:37.163Z,4.30
2017-05-10T22:48:03.017Z,3.38
2017-05-10T22:50:28.861Z,4.98
2017-05-10T22:52:57.633Z,5.44
2017-05-10T22:55:21.344Z,3.76
2017-05-10T22:57:47.180Z,4.74
2017-05-10T23:00:13.017Z,3.40
2017-05-10T23:02:38.891Z,3.00
2017-05-10T23:05:04.770Z,4.16
2017-05-10T23:07:30.748Z,3.82
2017-05-10T23:09:56.589Z,4.26
2017-05-10T23:12:22.442Z,3.64
2017-05-10T23:14:48.291Z,3.38
2017-05-10T23:17:14.157Z,3.66
2017-05-10T23:19:40.362Z,4.28
2017-05-10T23:22:06.202Z,3.54
2017-05-10T23:24:32.038Z,3.90
2017-05-10T23:26:58.590Z,3.30
2017-05-10T23:29:23.772Z,3.72
2017-05-10T23:31:49.861Z,3.64
2017-05-10T23:34:15.721Z,3.34
2017-05-10T23:36:41.570Z,3.62
2017-05-10T23:39:07.418Z,3.24
2017-05-10T23:41:33.253Z,3.60
2017-05-10T23:43:59.216Z,3.52
2017-05-10T23:46:25.054Z,4.04
2017-05-10T23:48:50.909Z,3.74
2017-05-10T23:51:18.346Z,3.86
2017-05-10T23:53:43.510Z,3.76
2017-05-10T23:56:09.518Z,3.00
2017-05-10T23:58:35.369Z,3.64
